N585RP KPSP-KSEZ
Flight info
| Callsign | N585RP |
|---|---|
| Flight time | 1h 0m |
| Altitude | 31000 |
| Route | HWRRD1 EED DRK |
| Aircraft | SF50/L-BDGRSWY/LB2U2 |
Departure
| Time | 2026-04-21 16:12 |
|---|---|
| Airport | Palm Springs International Airport (KPSP) |
Arrival
| Time | 2026-04-21 17:12 |
|---|---|
| Airport | Sedona Airport (KSEZ) |
| Time | Latitude | Longitude | Altitude | Speed | Heading |
|---|---|---|---|---|---|
| 2026-04-21 15:18 | 33.82594 | -116.50867 | 428 ft | 0 kts | 270° |
| 2026-04-21 16:05 | 33.82594 | -116.50874 | 428 ft | 3 kts | 270° |
| 2026-04-21 16:05 | 33.82624 | -116.50897 | 429 ft | 8 kts | 0° |
| 2026-04-21 16:06 | 33.82692 | -116.50896 | 430 ft | 12 kts | 1° |
| 2026-04-21 16:06 | 33.82772 | -116.50903 | 428 ft | 11 kts | 345° |
| 2026-04-21 16:06 | 33.82824 | -116.50921 | 433 ft | 6 kts | 341° |
| 2026-04-21 16:06 | 33.82865 | -116.50919 | 433 ft | 7 kts | 59° |
| 2026-04-21 16:07 | 33.82841 | -116.50859 | 427 ft | 11 kts | 143° |
| 2026-04-21 16:07 | 33.82766 | -116.50792 | 425 ft | 15 kts | 143° |
| 2026-04-21 16:07 | 33.82671 | -116.50707 | 424 ft | 19 kts | 143° |
| 2026-04-21 16:07 | 33.82548 | -116.50598 | 417 ft | 24 kts | 144° |
| 2026-04-21 16:08 | 33.82304 | -116.50381 | 411 ft | 20 kts | 144° |
| 2026-04-21 16:08 | 33.82203 | -116.50291 | 410 ft | 17 kts | 143° |
| 2026-04-21 16:08 | 33.82114 | -116.50212 | 408 ft | 16 kts | 142° |
| 2026-04-21 16:09 | 33.82028 | -116.50136 | 408 ft | 15 kts | 143° |
| 2026-04-21 16:09 | 33.81950 | -116.50066 | 408 ft | 14 kts | 143° |
| 2026-04-21 16:09 | 33.81873 | -116.49998 | 406 ft | 14 kts | 143° |
| 2026-04-21 16:09 | 33.81852 | -116.49907 | 406 ft | 9 kts | 88° |
| 2026-04-21 16:10 | 33.81852 | -116.49888 | 406 ft | 0 kts | 90° |
| 2026-04-21 16:11 | 33.81853 | -116.49853 | 406 ft | 10 kts | 90° |
| 2026-04-21 16:11 | 33.81885 | -116.49802 | 405 ft | 9 kts | 328° |
| 2026-04-21 16:11 | 33.81969 | -116.49876 | 405 ft | 35 kts | 325° |
| 2026-04-21 16:11 | 33.82346 | -116.50210 | 407 ft | 98 kts | 326° |
| 2026-04-21 16:12 | 33.82989 | -116.50787 | 662 ft | 123 kts | 324° |
| 2026-04-21 16:12 | 33.83704 | -116.51390 | 1162 ft | 128 kts | 325° |
| 2026-04-21 16:12 | 33.84483 | -116.51924 | 1672 ft | 125 kts | 332° |
| 2026-04-21 16:12 | 33.85235 | -116.52359 | 2096 ft | 117 kts | 325° |
| 2026-04-21 16:13 | 33.85800 | -116.53137 | 2248 ft | 138 kts | 317° |
| 2026-04-21 16:13 | 33.86663 | -116.53885 | 2434 ft | 165 kts | 326° |
| 2026-04-21 16:13 | 33.87617 | -116.54699 | 2936 ft | 167 kts | 323° |
| 2026-04-21 16:13 | 33.88571 | -116.55526 | 3461 ft | 170 kts | 322° |
| 2026-04-21 16:14 | 33.89568 | -116.56308 | 3950 ft | 173 kts | 333° |
| 2026-04-21 16:14 | 33.90768 | -116.56591 | 4414 ft | 182 kts | 359° |
| 2026-04-21 16:14 | 33.92000 | -116.56256 | 4906 ft | 184 kts | 22° |
| 2026-04-21 16:14 | 33.93044 | -116.55343 | 5371 ft | 189 kts | 42° |
| 2026-04-21 16:15 | 33.94018 | -116.54259 | 5848 ft | 192 kts | 40° |
| 2026-04-21 16:15 | 33.95017 | -116.53180 | 6314 ft | 194 kts | 41° |
| 2026-04-21 16:15 | 33.95926 | -116.51966 | 6734 ft | 198 kts | 60° |
| 2026-04-21 16:15 | 33.96358 | -116.50401 | 7193 ft | 197 kts | 84° |
| 2026-04-21 16:16 | 33.96274 | -116.48773 | 7650 ft | 194 kts | 108° |
| 2026-04-21 16:16 | 33.95930 | -116.47197 | 8118 ft | 195 kts | 109° |
| 2026-04-21 16:16 | 33.95617 | -116.45604 | 8599 ft | 196 kts | 109° |
| 2026-04-21 16:16 | 33.95289 | -116.44007 | 9079 ft | 196 kts | 110° |
| 2026-04-21 16:17 | 33.94959 | -116.42409 | 9566 ft | 198 kts | 109° |
| 2026-04-21 16:17 | 33.94896 | -116.40727 | 10009 ft | 206 kts | 89° |
| 2026-04-21 16:17 | 33.95072 | -116.39006 | 10423 ft | 207 kts | 90° |
| 2026-04-21 16:17 | 33.95203 | -116.37274 | 10849 ft | 208 kts | 91° |
| 2026-04-21 16:18 | 33.95345 | -116.35530 | 11253 ft | 210 kts | 91° |
| 2026-04-21 16:18 | 33.95487 | -116.33779 | 11715 ft | 211 kts | 91° |
| 2026-04-21 16:18 | 33.95632 | -116.32019 | 12143 ft | 212 kts | 91° |
| 2026-04-21 16:18 | 33.95776 | -116.30245 | 12573 ft | 213 kts | 91° |
| 2026-04-21 16:19 | 33.95926 | -116.28459 | 12990 ft | 215 kts | 91° |
| 2026-04-21 16:19 | 33.96073 | -116.26666 | 13423 ft | 216 kts | 90° |
| 2026-04-21 16:19 | 33.96197 | -116.24857 | 13801 ft | 217 kts | 91° |
| 2026-04-21 16:19 | 33.96358 | -116.23038 | 14161 ft | 219 kts | 91° |
| 2026-04-21 16:20 | 33.96517 | -116.21208 | 14513 ft | 221 kts | 91° |
| 2026-04-21 16:20 | 33.96666 | -116.19363 | 14857 ft | 222 kts | 91° |
| 2026-04-21 16:20 | 33.96816 | -116.17509 | 15213 ft | 223 kts | 91° |
| 2026-04-21 16:20 | 33.96968 | -116.15642 | 15554 ft | 225 kts | 90° |
| 2026-04-21 16:21 | 33.97180 | -116.13765 | 15873 ft | 227 kts | 89° |
| 2026-04-21 16:21 | 33.97384 | -116.11872 | 16208 ft | 229 kts | 89° |
| 2026-04-21 16:21 | 33.97590 | -116.09966 | 16547 ft | 230 kts | 89° |
| 2026-04-21 16:21 | 33.97801 | -116.08047 | 16872 ft | 232 kts | 89° |
| 2026-04-21 16:22 | 33.98011 | -116.06116 | 17202 ft | 233 kts | 89° |
| 2026-04-21 16:22 | 33.98224 | -116.04173 | 17522 ft | 235 kts | 89° |
| 2026-04-21 16:22 | 33.98438 | -116.02219 | 17834 ft | 236 kts | 88° |
| 2026-04-21 16:22 | 33.98651 | -116.00252 | 18142 ft | 238 kts | 88° |
| 2026-04-21 16:23 | 33.98865 | -115.98296 | 18418 ft | 239 kts | 88° |
| 2026-04-21 16:23 | 33.99084 | -115.96305 | 18701 ft | 240 kts | 88° |
| 2026-04-21 16:23 | 33.99300 | -115.94303 | 18965 ft | 242 kts | 89° |
| 2026-04-21 16:23 | 33.99518 | -115.92281 | 19219 ft | 244 kts | 89° |
| 2026-04-21 16:24 | 33.99743 | -115.90245 | 19486 ft | 245 kts | 88° |
| 2026-04-21 16:24 | 33.99963 | -115.88206 | 19733 ft | 246 kts | 88° |
| 2026-04-21 16:24 | 34.00181 | -115.86153 | 19977 ft | 248 kts | 88° |
| 2026-04-21 16:24 | 34.00406 | -115.84090 | 20221 ft | 249 kts | 88° |
| 2026-04-21 16:25 | 34.00632 | -115.82015 | 20476 ft | 250 kts | 88° |
| 2026-04-21 16:25 | 34.00858 | -115.79930 | 20718 ft | 251 kts | 88° |
| 2026-04-21 16:25 | 34.01084 | -115.77837 | 20976 ft | 252 kts | 88° |
| 2026-04-21 16:25 | 34.01311 | -115.75744 | 21238 ft | 252 kts | 88° |
| 2026-04-21 16:26 | 34.01537 | -115.73651 | 21499 ft | 252 kts | 88° |
| 2026-04-21 16:26 | 34.01764 | -115.71557 | 21766 ft | 252 kts | 88° |
| 2026-04-21 16:26 | 34.01989 | -115.69464 | 22048 ft | 252 kts | 88° |
| 2026-04-21 16:26 | 34.02214 | -115.67368 | 22315 ft | 252 kts | 88° |
| 2026-04-21 16:27 | 34.02438 | -115.65272 | 22597 ft | 252 kts | 88° |
| 2026-04-21 16:27 | 34.02666 | -115.63177 | 22847 ft | 253 kts | 88° |
| 2026-04-21 16:27 | 34.02891 | -115.61071 | 23114 ft | 253 kts | 87° |
| 2026-04-21 16:27 | 34.03114 | -115.58965 | 23394 ft | 254 kts | 87° |
| 2026-04-21 16:28 | 34.03337 | -115.56853 | 23637 ft | 254 kts | 87° |
| 2026-04-21 16:28 | 34.03560 | -115.54746 | 23864 ft | 253 kts | 87° |
| 2026-04-21 16:28 | 34.03786 | -115.52642 | 24086 ft | 253 kts | 87° |
| 2026-04-21 16:28 | 34.04009 | -115.50535 | 24304 ft | 253 kts | 87° |
| 2026-04-21 16:29 | 34.04156 | -115.49142 | 24455 ft | 253 kts | 87° |
| 2026-04-21 16:29 | 34.04454 | -115.46325 | 24764 ft | 253 kts | 87° |
| 2026-04-21 16:29 | 34.04677 | -115.44221 | 24998 ft | 253 kts | 87° |
| 2026-04-21 16:29 | 34.04898 | -115.42117 | 25234 ft | 253 kts | 87° |
| 2026-04-21 16:30 | 34.05120 | -115.40017 | 25476 ft | 252 kts | 87° |
| 2026-04-21 16:30 | 34.05431 | -115.37929 | 25679 ft | 256 kts | 74° |
| 2026-04-21 16:30 | 34.06240 | -115.36016 | 25906 ft | 258 kts | 56° |
| 2026-04-21 16:30 | 34.07422 | -115.34437 | 26109 ft | 257 kts | 43° |
| 2026-04-21 16:31 | 34.08692 | -115.32878 | 26345 ft | 257 kts | 45° |
| 2026-04-21 16:31 | 34.09906 | -115.31342 | 26604 ft | 255 kts | 45° |
| 2026-04-21 16:31 | 34.11140 | -115.29805 | 26851 ft | 255 kts | 44° |
| 2026-04-21 16:31 | 34.12393 | -115.28255 | 27095 ft | 255 kts | 44° |
| 2026-04-21 16:32 | 34.13609 | -115.26741 | 27347 ft | 254 kts | 44° |
| 2026-04-21 16:32 | 34.14857 | -115.25188 | 27603 ft | 254 kts | 44° |
| 2026-04-21 16:32 | 34.16068 | -115.23678 | 27857 ft | 254 kts | 44° |
| 2026-04-21 16:32 | 34.17295 | -115.22152 | 28124 ft | 253 kts | 44° |
| 2026-04-21 16:33 | 34.18524 | -115.20625 | 28370 ft | 253 kts | 44° |
| 2026-04-21 16:33 | 34.19746 | -115.19088 | 28584 ft | 254 kts | 45° |
| 2026-04-21 16:33 | 34.20964 | -115.17551 | 28846 ft | 253 kts | 44° |
| 2026-04-21 16:33 | 34.22198 | -115.16042 | 29095 ft | 252 kts | 44° |
| 2026-04-21 16:34 | 34.23420 | -115.14519 | 29350 ft | 252 kts | 45° |
| 2026-04-21 16:34 | 34.24637 | -115.12994 | 29601 ft | 252 kts | 44° |
| 2026-04-21 16:34 | 34.25856 | -115.11472 | 29837 ft | 252 kts | 44° |
| 2026-04-21 16:34 | 34.27072 | -115.09951 | 30075 ft | 251 kts | 44° |
| 2026-04-21 16:35 | 34.28287 | -115.08428 | 30282 ft | 251 kts | 44° |
| 2026-04-21 16:35 | 34.29500 | -115.06910 | 30488 ft | 251 kts | 44° |
| 2026-04-21 16:35 | 34.30714 | -115.05389 | 30694 ft | 251 kts | 44° |
| 2026-04-21 16:35 | 34.31926 | -115.03869 | 30906 ft | 251 kts | 45° |
| 2026-04-21 16:36 | 34.33157 | -115.02325 | 30948 ft | 260 kts | 45° |
| 2026-04-21 16:36 | 34.34432 | -115.00724 | 30950 ft | 268 kts | 45° |
| 2026-04-21 16:36 | 34.35742 | -114.99073 | 30951 ft | 275 kts | 45° |
| 2026-04-21 16:36 | 34.37086 | -114.97385 | 30952 ft | 282 kts | 45° |
| 2026-04-21 16:37 | 34.38460 | -114.95661 | 30946 ft | 287 kts | 45° |
| 2026-04-21 16:37 | 34.39856 | -114.93899 | 30950 ft | 292 kts | 45° |
| 2026-04-21 16:37 | 34.41293 | -114.92131 | 30946 ft | 297 kts | 44° |
| 2026-04-21 16:38 | 34.44209 | -114.88466 | 30949 ft | 307 kts | 45° |
| 2026-04-21 16:38 | 34.47219 | -114.84670 | 30951 ft | 317 kts | 45° |
| 2026-04-21 16:39 | 34.49779 | -114.81442 | 30958 ft | 322 kts | 45° |
| 2026-04-21 16:39 | 34.52909 | -114.77486 | 30964 ft | 328 kts | 45° |
| 2026-04-21 16:40 | 34.56087 | -114.73468 | 30969 ft | 332 kts | 45° |
| 2026-04-21 16:40 | 34.59303 | -114.69396 | 30978 ft | 336 kts | 45° |
| 2026-04-21 16:41 | 34.62549 | -114.65283 | 30985 ft | 339 kts | 45° |
| 2026-04-21 16:41 | 34.65809 | -114.61149 | 30992 ft | 339 kts | 45° |
| 2026-04-21 16:42 | 34.69060 | -114.57020 | 30996 ft | 338 kts | 46° |
| 2026-04-21 16:42 | 34.72304 | -114.52895 | 30994 ft | 337 kts | 46° |
| 2026-04-21 16:43 | 34.75257 | -114.48507 | 30978 ft | 336 kts | 63° |
| 2026-04-21 16:43 | 34.76123 | -114.45880 | 30968 ft | 334 kts | 77° |
| 2026-04-21 16:43 | 34.76482 | -114.43106 | 30961 ft | 331 kts | 90° |
| 2026-04-21 16:44 | 34.76360 | -114.37539 | 30951 ft | 329 kts | 95° |
| 2026-04-21 16:44 | 34.76234 | -114.32011 | 30948 ft | 329 kts | 95° |
| 2026-04-21 16:45 | 34.76090 | -114.26445 | 30947 ft | 329 kts | 95° |
| 2026-04-21 16:45 | 34.75950 | -114.20881 | 30942 ft | 329 kts | 95° |
| 2026-04-21 16:46 | 34.75805 | -114.15315 | 30937 ft | 329 kts | 95° |
| 2026-04-21 16:46 | 34.75657 | -114.09751 | 30936 ft | 329 kts | 95° |
| 2026-04-21 16:47 | 34.75507 | -114.04187 | 30932 ft | 329 kts | 95° |
| 2026-04-21 16:47 | 34.75353 | -113.98636 | 30932 ft | 328 kts | 95° |
| 2026-04-21 16:48 | 34.75198 | -113.93094 | 30934 ft | 328 kts | 95° |
| 2026-04-21 16:48 | 34.75041 | -113.87562 | 30939 ft | 328 kts | 95° |
| 2026-04-21 16:49 | 34.74882 | -113.82030 | 30935 ft | 327 kts | 95° |
| 2026-04-21 16:49 | 34.74722 | -113.76519 | 30936 ft | 326 kts | 95° |
| 2026-04-21 16:49 | 34.74639 | -113.73755 | 30709 ft | 328 kts | 95° |
| 2026-04-21 16:50 | 34.74557 | -113.70998 | 30307 ft | 325 kts | 95° |
| 2026-04-21 16:50 | 34.74476 | -113.68261 | 29859 ft | 322 kts | 95° |
| 2026-04-21 16:50 | 34.74395 | -113.65554 | 29422 ft | 318 kts | 95° |
| 2026-04-21 16:50 | 34.74314 | -113.62881 | 29003 ft | 316 kts | 96° |
| 2026-04-21 16:51 | 34.74228 | -113.60203 | 28594 ft | 318 kts | 96° |
| 2026-04-21 16:51 | 34.74144 | -113.57509 | 28175 ft | 320 kts | 96° |
| 2026-04-21 16:51 | 34.74062 | -113.54799 | 27753 ft | 321 kts | 96° |
| 2026-04-21 16:51 | 34.73976 | -113.52078 | 27327 ft | 323 kts | 96° |
| 2026-04-21 16:52 | 34.73889 | -113.49351 | 26898 ft | 323 kts | 96° |
| 2026-04-21 16:52 | 34.73802 | -113.46627 | 26480 ft | 322 kts | 96° |
| 2026-04-21 16:52 | 34.73713 | -113.43910 | 26055 ft | 321 kts | 96° |
| 2026-04-21 16:52 | 34.73629 | -113.41209 | 25633 ft | 318 kts | 96° |
| 2026-04-21 16:53 | 34.73543 | -113.38531 | 25211 ft | 315 kts | 96° |
| 2026-04-21 16:53 | 34.73456 | -113.35916 | 24810 ft | 314 kts | 96° |
| 2026-04-21 16:53 | 34.73367 | -113.33266 | 24398 ft | 314 kts | 96° |
| 2026-04-21 16:53 | 34.73278 | -113.30615 | 23985 ft | 314 kts | 97° |
| 2026-04-21 16:54 | 34.73190 | -113.27960 | 23567 ft | 314 kts | 97° |
| 2026-04-21 16:54 | 34.73103 | -113.25305 | 23113 ft | 313 kts | 97° |
| 2026-04-21 16:54 | 34.73013 | -113.22657 | 22705 ft | 315 kts | 97° |
| 2026-04-21 16:54 | 34.72919 | -113.19986 | 22289 ft | 318 kts | 97° |
| 2026-04-21 16:55 | 34.72829 | -113.17294 | 21866 ft | 320 kts | 96° |
| 2026-04-21 16:55 | 34.72736 | -113.14585 | 21442 ft | 322 kts | 97° |
| 2026-04-21 16:55 | 34.72641 | -113.11863 | 21018 ft | 322 kts | 97° |
| 2026-04-21 16:55 | 34.72546 | -113.09142 | 20594 ft | 322 kts | 96° |
| 2026-04-21 16:56 | 34.72452 | -113.06432 | 20175 ft | 321 kts | 96° |
| 2026-04-21 16:56 | 34.72356 | -113.03714 | 19754 ft | 323 kts | 96° |
| 2026-04-21 16:56 | 34.72257 | -113.00981 | 19329 ft | 325 kts | 96° |
| 2026-04-21 16:56 | 34.72159 | -112.98232 | 18900 ft | 326 kts | 96° |
| 2026-04-21 16:57 | 34.72059 | -112.95473 | 18470 ft | 327 kts | 96° |
| 2026-04-21 16:57 | 34.71959 | -112.92707 | 18007 ft | 328 kts | 96° |
| 2026-04-21 16:57 | 34.71859 | -112.89935 | 17565 ft | 328 kts | 96° |
| 2026-04-21 16:57 | 34.71758 | -112.87157 | 17132 ft | 329 kts | 96° |
| 2026-04-21 16:58 | 34.71654 | -112.84376 | 16697 ft | 329 kts | 96° |
| 2026-04-21 16:58 | 34.71553 | -112.81612 | 16265 ft | 325 kts | 97° |
| 2026-04-21 16:58 | 34.71455 | -112.78882 | 15835 ft | 322 kts | 97° |
| 2026-04-21 16:58 | 34.71350 | -112.76176 | 15411 ft | 319 kts | 97° |
| 2026-04-21 16:59 | 34.71245 | -112.73498 | 14997 ft | 316 kts | 97° |
| 2026-04-21 16:59 | 34.71145 | -112.70834 | 14582 ft | 315 kts | 97° |
| 2026-04-21 16:59 | 34.71045 | -112.68177 | 14170 ft | 315 kts | 97° |
| 2026-04-21 16:59 | 34.70944 | -112.65517 | 13747 ft | 315 kts | 97° |
| 2026-04-21 17:00 | 34.70840 | -112.62863 | 13309 ft | 312 kts | 97° |
| 2026-04-21 17:00 | 34.70739 | -112.60237 | 12899 ft | 310 kts | 97° |
| 2026-04-21 17:00 | 34.70669 | -112.58513 | 12635 ft | 307 kts | 98° |
| 2026-04-21 17:00 | 34.70362 | -112.55094 | 12113 ft | 302 kts | 102° |
| 2026-04-21 17:01 | 34.70128 | -112.52561 | 11711 ft | 302 kts | 100° |
| 2026-04-21 17:01 | 34.69953 | -112.50032 | 11327 ft | 299 kts | 99° |
| 2026-04-21 17:01 | 34.69779 | -112.47532 | 11141 ft | 295 kts | 100° |
| 2026-04-21 17:01 | 34.69581 | -112.45053 | 10761 ft | 294 kts | 101° |
| 2026-04-21 17:02 | 34.69384 | -112.42583 | 10389 ft | 293 kts | 101° |
| 2026-04-21 17:02 | 34.69199 | -112.40161 | 10030 ft | 291 kts | 101° |
| 2026-04-21 17:02 | 34.69012 | -112.37724 | 9641 ft | 288 kts | 101° |
| 2026-04-21 17:02 | 34.68822 | -112.35296 | 9497 ft | 288 kts | 101° |
| 2026-04-21 17:03 | 34.68634 | -112.32892 | 9496 ft | 284 kts | 100° |
| 2026-04-21 17:03 | 34.68448 | -112.30513 | 9490 ft | 282 kts | 100° |
| 2026-04-21 17:03 | 34.68261 | -112.28154 | 9476 ft | 280 kts | 101° |
| 2026-04-21 17:03 | 34.68078 | -112.25801 | 9464 ft | 279 kts | 100° |
| 2026-04-21 17:04 | 34.67900 | -112.23507 | 9453 ft | 262 kts | 101° |
| 2026-04-21 17:04 | 34.67740 | -112.21401 | 9433 ft | 239 kts | 101° |
| 2026-04-21 17:04 | 34.67589 | -112.19478 | 9417 ft | 220 kts | 102° |
| 2026-04-21 17:04 | 34.67447 | -112.17683 | 9405 ft | 211 kts | 102° |
| 2026-04-21 17:05 | 34.67306 | -112.15902 | 9402 ft | 212 kts | 101° |
| 2026-04-21 17:05 | 34.67160 | -112.14115 | 9416 ft | 213 kts | 102° |
| 2026-04-21 17:05 | 34.67010 | -112.12314 | 9387 ft | 215 kts | 102° |
| 2026-04-21 17:05 | 34.66855 | -112.10525 | 9389 ft | 213 kts | 103° |
| 2026-04-21 17:06 | 34.66706 | -112.08720 | 9379 ft | 217 kts | 101° |
| 2026-04-21 17:06 | 34.66611 | -112.06916 | 9352 ft | 211 kts | 98° |
| 2026-04-21 17:06 | 34.66488 | -112.05147 | 9365 ft | 210 kts | 104° |
| 2026-04-21 17:06 | 34.66440 | -112.03347 | 9363 ft | 220 kts | 87° |
| 2026-04-21 17:07 | 34.66700 | -112.02147 | 9379 ft | 224 kts | 75° |
| 2026-04-21 17:07 | 34.67838 | -111.99974 | 9154 ft | 233 kts | 49° |
| 2026-04-21 17:07 | 34.68975 | -111.98593 | 8888 ft | 229 kts | 48° |
| 2026-04-21 17:07 | 34.70081 | -111.97217 | 8606 ft | 226 kts | 49° |
| 2026-04-21 17:08 | 34.71173 | -111.95855 | 8318 ft | 224 kts | 49° |
| 2026-04-21 17:08 | 34.72258 | -111.94515 | 8041 ft | 220 kts | 48° |
| 2026-04-21 17:08 | 34.73319 | -111.93199 | 7776 ft | 217 kts | 49° |
| 2026-04-21 17:08 | 34.74365 | -111.91900 | 7500 ft | 212 kts | 48° |
| 2026-04-21 17:09 | 34.76378 | -111.89395 | 7004 ft | 191 kts | 48° |
| 2026-04-21 17:09 | 34.77261 | -111.88299 | 6761 ft | 174 kts | 48° |
| 2026-04-21 17:09 | 34.78082 | -111.87274 | 6561 ft | 165 kts | 47° |
| 2026-04-21 17:10 | 34.78870 | -111.86301 | 6343 ft | 160 kts | 47° |
| 2026-04-21 17:10 | 34.79648 | -111.85304 | 6131 ft | 163 kts | 50° |
| 2026-04-21 17:10 | 34.80453 | -111.84383 | 5949 ft | 166 kts | 47° |
| 2026-04-21 17:10 | 34.81255 | -111.83415 | 5725 ft | 154 kts | 50° |
| 2026-04-21 17:11 | 34.81920 | -111.82553 | 5505 ft | 126 kts | 51° |
| 2026-04-21 17:11 | 34.82475 | -111.81836 | 5328 ft | 110 kts | 54° |
| 2026-04-21 17:11 | 34.82995 | -111.81175 | 5171 ft | 104 kts | 53° |
| 2026-04-21 17:11 | 34.83487 | -111.80567 | 5018 ft | 99 kts | 50° |
| 2026-04-21 17:12 | 34.83971 | -111.79955 | 4898 ft | 100 kts | 52° |
| 2026-04-21 17:12 | 34.84433 | -111.79382 | 4767 ft | 85 kts | 60° |
| 2026-04-21 17:12 | 34.84769 | -111.78947 | 4775 ft | 58 kts | 46° |
| 2026-04-21 17:12 | 34.85019 | -111.78645 | 4799 ft | 43 kts | 45° |
| 2026-04-21 17:13 | 34.85194 | -111.78424 | 4819 ft | 25 kts | 45° |
| 2026-04-21 17:13 | 34.85261 | -111.78384 | 4830 ft | 6 kts | 331° |
| 2026-04-21 17:13 | 34.85282 | -111.78406 | 4828 ft | 2 kts | 313° |
| 2026-04-21 17:13 | 34.85284 | -111.78410 | 4828 ft | 0 kts | 301° |
| 2026-04-21 17:14 | 34.85282 | -111.78440 | 4828 ft | 7 kts | 225° |
| 2026-04-21 17:14 | 34.85219 | -111.78517 | 4815 ft | 18 kts | 225° |
| 2026-04-21 17:14 | 34.85122 | -111.78637 | 4803 ft | 21 kts | 225° |
| 2026-04-21 17:14 | 34.85026 | -111.78757 | 4793 ft | 20 kts | 225° |
| 2026-04-21 17:15 | 34.84935 | -111.78870 | 4785 ft | 11 kts | 227° |
| 2026-04-21 17:15 | 34.84926 | -111.78913 | 4786 ft | 1 kts | 334° |
| 2026-04-21 17:15 | 34.84927 | -111.78914 | 4786 ft | 1 kts | 336° |
| 2026-04-21 17:15 | 34.84958 | -111.78893 | 4788 ft | 9 kts | 59° |
| 2026-04-21 17:16 | 34.84977 | -111.78869 | 4788 ft | 0 kts | 44° |